Berlin, Michigan
Current Conditions -  °F | °C
As of 4:53 AM on Sunday 23 Nov 2014 (Local Time) from KD95 Reporting Station
Overcast Overcast  
Wind Chill:   Ceiling: 2000
Heat Index:   Visibility: 10mi
Dew Point:   Wind: 7mph
Humidity: 85%   Direction: 220°SW
Pressure: 29.9"   Gusts: NA
Location:  42.9384°N, 82.9255°W
Report Text: KD95 230953Z AUTO 22006KT 10SM OVC020 08/06 A2990 RMK AO2 T00800057
Loading
Personal Weather Stations






























Interactive Weather Map New forecast layout! Learn more

10-Day Weather Forecast

Advertisements
Track Severe Weather on mobile